createdAt,value
2023-02-08T00:02:36.914Z,97360.41
2023-02-08T00:05:47.731Z,97353.94
2023-02-08T00:08:49.973Z,97358.00
2023-02-08T00:11:53.552Z,97361.38
2023-02-08T00:14:58.515Z,97356.09
2023-02-08T00:18:04.182Z,97366.88
2023-02-08T00:21:13.463Z,97357.03
2023-02-08T00:24:15.322Z,97357.69
2023-02-08T00:27:17.245Z,97346.56
2023-02-08T00:30:21.844Z,97344.34
2023-02-08T00:33:24.050Z,97339.06
2023-02-08T00:36:31.682Z,97339.06
2023-02-08T00:39:46.544Z,97334.25
2023-02-08T00:42:48.401Z,97335.13
2023-02-08T00:45:56.590Z,97336.41
2023-02-08T00:48:59.579Z,97334.66
2023-02-08T00:52:05.370Z,97341.84
2023-02-08T00:55:08.901Z,97340.56
2023-02-08T00:58:12.676Z,97345.44
2023-02-08T01:01:16.975Z,97340.66
2023-02-08T01:04:19.900Z,97337.19
2023-02-08T01:07:23.089Z,97343.94
2023-02-08T01:10:26.030Z,97348.78
2023-02-08T01:13:27.823Z,97351.22
2023-02-08T01:16:34.061Z,97351.59
2023-02-08T01:19:37.012Z,97346.41
2023-02-08T01:22:50.402Z,97349.91
2023-02-08T01:25:52.172Z,97336.81
2023-02-08T01:29:09.104Z,97340.38
2023-02-08T01:32:14.366Z,97336.00
2023-02-08T01:35:19.255Z,97336.53
2023-02-08T01:38:47.774Z,97339.03
2023-02-08T01:41:50.610Z,97332.00
2023-02-08T01:45:36.256Z,97326.06
2023-02-08T01:48:47.689Z,97326.38
2023-02-08T01:51:59.319Z,97319.91
2023-02-08T01:55:09.781Z,97311.38
2023-02-08T01:58:44.719Z,97310.22
2023-02-08T02:01:42.031Z,97319.81
2023-02-08T02:04:57.321Z,97318.34
2023-02-08T02:09:09.857Z,97314.03
2023-02-08T02:11:43.624Z,97319.31
2023-02-08T02:14:48.847Z,97313.50
2023-02-08T02:17:52.789Z,97314.03
2023-02-08T02:21:28.385Z,97319.06
2023-02-08T02:25:06.357Z,97298.72
2023-02-08T02:28:47.132Z,97307.38
2023-02-08T02:32:09.394Z,97315.38
2023-02-08T02:35:23.924Z,97310.75
2023-02-08T02:39:11.959Z,97310.97
2023-02-08T02:42:43.754Z,97309.28
2023-02-08T02:45:55.177Z,97308.50
2023-02-08T02:49:06.220Z,97305.44
2023-02-08T02:52:18.370Z,97304.63
2023-02-08T02:55:39.317Z,97304.97
2023-02-08T02:58:51.288Z,97306.44
2023-02-08T03:02:16.842Z,97296.94
2023-02-08T03:09:43.877Z,97304.19
2023-02-08T03:13:03.276Z,97305.50
2023-02-08T03:16:38.980Z,97305.28
2023-02-08T03:19:54.398Z,97309.88
2023-02-08T03:23:08.389Z,97318.38
2023-02-08T03:26:43.819Z,97317.47
2023-02-08T03:30:02.524Z,97319.38
2023-02-08T03:33:14.994Z,97320.06
2023-02-08T03:37:05.715Z,97321.34
2023-02-08T03:43:23.736Z,97308.75
2023-02-08T03:53:32.776Z,97314.34
2023-02-08T03:54:14.663Z,97318.47
2023-02-08T04:19:44.744Z,97300.19
2023-02-08T04:23:19.164Z,97307.66
2023-02-08T07:52:08.411Z,97306.72
2023-02-08T08:03:04.571Z,97314.84
2023-02-08T08:06:32.507Z,97320.78
2023-02-08T08:09:37.342Z,97323.41
2023-02-08T08:12:46.064Z,97329.94
2023-02-08T08:15:58.332Z,97324.66
2023-02-08T08:19:04.573Z,97317.53
2023-02-08T08:22:19.375Z,97319.91
2023-02-08T08:25:31.050Z,97319.81
2023-02-08T08:32:37.666Z,97318.59
2023-02-08T08:35:43.597Z,97330.59
2023-02-08T08:38:47.574Z,97324.94
2023-02-08T08:41:49.388Z,97323.91
2023-02-08T08:44:51.336Z,97320.38
2023-02-08T08:47:54.239Z,97321.25
2023-02-08T08:50:57.065Z,97321.81
2023-02-08T08:54:02.565Z,97340.38
2023-02-08T08:57:05.518Z,97336.22
2023-02-08T09:00:11.063Z,97338.41
2023-02-08T09:03:13.097Z,97342.06
2023-02-08T09:06:14.983Z,97334.63
2023-02-08T09:09:18.948Z,97343.53
2023-02-08T09:12:23.315Z,97333.41
2023-02-08T09:15:25.220Z,97320.22
2023-02-08T09:18:27.158Z,97325.97
2023-02-08T09:21:29.860Z,97326.72
2023-02-08T09:24:33.344Z,97331.66
2023-02-08T09:27:35.606Z,97327.03
2023-02-08T09:30:37.422Z,97321.63
2023-02-08T09:33:39.602Z,97323.09
2023-02-08T09:36:42.520Z,97314.72
2023-02-08T09:39:46.900Z,97318.94
2023-02-08T09:42:57.427Z,97301.91
2023-02-08T09:46:03.874Z,97305.75
2023-02-08T09:49:14.276Z,97311.00
2023-02-08T09:52:21.336Z,97307.03
2023-02-08T09:55:30.819Z,97299.94
2023-02-08T09:58:37.987Z,97320.63
2023-02-08T10:01:39.797Z,97317.75
2023-02-08T10:04:57.376Z,97330.16
2023-02-08T10:08:00.706Z,97309.75
2023-02-08T10:11:22.647Z,97306.53
2023-02-08T10:14:41.563Z,97316.78
2023-02-08T10:18:01.907Z,97314.38
2023-02-08T10:21:22.140Z,97312.00
2023-02-08T10:24:45.159Z,97298.66
2023-02-08T10:28:05.464Z,97297.69
2023-02-08T10:31:19.489Z,97302.56
2023-02-08T10:34:36.802Z,97298.50
2023-02-08T10:37:41.830Z,97280.47
2023-02-08T10:40:45.325Z,97275.50
2023-02-08T10:43:56.312Z,97282.94
2023-02-08T10:47:09.540Z,97279.75
2023-02-08T10:50:19.436Z,97279.31
2023-02-08T10:53:21.590Z,97276.50
2023-02-08T10:56:43.536Z,97257.78
2023-02-08T10:59:52.889Z,97269.81
2023-02-08T11:02:59.646Z,97265.19
2023-02-08T11:06:01.460Z,97262.91
2023-02-08T11:09:03.785Z,97259.34
2023-02-08T11:12:06.147Z,97254.88
2023-02-08T11:15:22.953Z,97256.59
2023-02-08T11:18:27.693Z,97251.19
2023-02-08T11:21:32.177Z,97243.66
2023-02-08T11:24:38.851Z,97242.59
2023-02-08T11:27:48.824Z,97240.84
2023-02-08T11:31:00.905Z,97235.09
2023-02-08T11:34:04.528Z,97236.69
2023-02-08T11:37:15.507Z,97225.06
2023-02-08T11:40:21.127Z,97243.81
2023-02-08T11:43:25.083Z,97241.56
2023-02-08T11:46:32.197Z,97237.13
2023-02-08T11:49:38.563Z,97232.72
2023-02-08T11:52:43.161Z,97231.47
2023-02-08T11:55:45.168Z,97229.19
2023-02-08T11:59:03.237Z,97221.53
2023-02-08T12:02:36.953Z,97221.03
2023-02-08T12:05:45.536Z,97210.09
2023-02-08T12:08:55.766Z,97204.75
2023-02-08T12:12:09.339Z,97209.09
2023-02-08T12:15:22.163Z,97208.97
2023-02-08T12:18:52.817Z,97206.81
2023-02-08T12:22:00.540Z,97202.03
2023-02-08T12:25:20.839Z,97184.84
2023-02-08T12:28:36.903Z,97184.88
2023-02-08T12:31:50.256Z,97180.94
2023-02-08T12:35:29.500Z,97173.00
2023-02-08T12:39:18.376Z,97180.72
2023-02-08T12:42:50.849Z,97176.75
2023-02-08T12:46:08.160Z,97168.81
2023-02-08T12:49:33.180Z,97153.03
2023-02-08T12:52:41.030Z,97164.72
2023-02-08T12:55:44.795Z,97147.75
2023-02-08T12:58:50.680Z,97159.94
2023-02-08T13:01:56.341Z,97139.81
2023-02-08T13:05:04.502Z,97134.78
2023-02-08T13:08:29.824Z,97128.41
2023-02-08T13:11:38.699Z,97133.69
2023-02-08T13:14:45.241Z,97134.25
2023-02-08T13:17:52.862Z,97128.69
2023-02-08T13:21:00.285Z,97118.34
2023-02-08T13:24:10.533Z,97126.31
2023-02-08T13:27:17.313Z,97116.25
2023-02-08T13:30:21.108Z,97121.81
2023-02-08T13:33:30.379Z,97114.38
2023-02-08T13:36:34.715Z,97109.31
2023-02-08T13:39:43.171Z,97115.16
2023-02-08T13:42:49.338Z,97108.81
2023-02-08T13:45:53.787Z,97116.50
2023-02-08T13:48:57.273Z,97114.09
2023-02-08T13:51:59.104Z,97116.25
2023-02-08T13:55:49.026Z,97109.34
2023-02-08T13:59:02.107Z,97102.41
2023-02-08T14:02:36.994Z,97109.56
2023-02-08T14:05:47.377Z,97096.81
2023-02-08T14:08:58.668Z,97090.69
2023-02-08T14:12:04.752Z,97094.69
2023-02-08T14:15:31.551Z,97078.53
2023-02-08T14:18:33.428Z,97072.69
2023-02-08T14:21:38.268Z,97075.84
2023-02-08T14:24:42.442Z,97074.72
2023-02-08T14:27:53.149Z,97075.81
2023-02-08T14:30:59.840Z,97095.22
2023-02-08T14:34:02.168Z,97092.28
2023-02-08T14:37:25.889Z,97077.94
2023-02-08T14:40:50.354Z,97080.88
2023-02-08T14:43:52.174Z,97073.72
2023-02-08T14:46:55.434Z,97075.03
2023-02-08T14:50:05.704Z,97069.38
2023-02-08T14:53:29.502Z,97073.09
2023-02-08T14:56:35.084Z,97061.16
2023-02-08T14:59:37.122Z,97063.00
2023-02-08T15:02:44.689Z,97070.47
2023-02-08T15:06:14.271Z,97064.38
2023-02-08T15:09:20.046Z,97065.16
2023-02-08T15:12:26.536Z,97058.28
2023-02-08T15:15:32.232Z,97061.97
2023-02-08T15:18:36.488Z,97058.81
2023-02-08T15:21:38.793Z,97067.34
2023-02-08T15:24:49.811Z,97049.25
2023-02-08T15:27:54.490Z,97055.38
2023-02-08T15:30:59.403Z,97054.34
2023-02-08T15:34:03.745Z,97046.06
2023-02-08T15:37:06.840Z,97046.28
2023-02-08T15:40:23.053Z,97053.25
2023-02-08T15:43:25.504Z,97054.00
2023-02-08T15:46:28.580Z,97045.50
2023-02-08T15:49:35.530Z,97052.41
2023-02-08T15:52:37.833Z,97059.84
2023-02-08T15:55:47.013Z,97056.41
2023-02-08T15:58:52.008Z,97055.69
2023-02-08T16:01:55.491Z,97067.09
2023-02-08T16:05:03.688Z,97058.84
2023-02-08T16:08:20.799Z,97061.81
2023-02-08T16:11:27.364Z,97059.41
2023-02-08T16:14:30.911Z,97066.59
2023-02-08T16:17:42.745Z,97062.06
2023-02-08T16:20:56.917Z,97065.84
2023-02-08T16:24:00.732Z,97074.34
2023-02-08T16:27:05.460Z,97061.59
2023-02-08T16:30:19.451Z,97059.75
2023-02-08T16:33:22.079Z,97069.03
2023-02-08T16:36:30.468Z,97053.91
2023-02-08T16:39:38.667Z,97050.44
2023-02-08T16:42:44.450Z,97055.75
2023-02-08T16:49:57.958Z,97061.03
2023-02-08T16:53:04.016Z,97059.47
2023-02-08T16:56:09.063Z,97063.69
2023-02-08T16:59:12.313Z,97054.13
2023-02-08T17:02:15.577Z,97065.00
2023-02-08T17:05:18.857Z,97061.31
2023-02-08T17:08:22.524Z,97074.56
2023-02-08T17:11:25.141Z,97074.78
2023-02-08T17:14:28.675Z,97077.97
2023-02-08T17:17:31.183Z,97067.69
2023-02-08T17:20:34.794Z,97067.13
2023-02-08T17:23:38.620Z,97089.63
2023-02-08T17:26:43.753Z,97078.47
2023-02-08T17:29:46.392Z,97087.50
2023-02-08T17:32:50.235Z,97090.63
2023-02-08T17:35:53.287Z,97074.00
2023-02-08T17:38:58.806Z,97080.38
2023-02-08T17:42:02.887Z,97081.13
2023-02-08T17:45:06.411Z,97077.38
2023-02-08T17:48:09.275Z,97074.25
2023-02-08T17:51:20.292Z,97066.31
2023-02-08T17:54:30.461Z,97074.75
2023-02-08T17:57:35.949Z,97073.97
2023-02-08T18:00:40.790Z,97072.13
2023-02-08T18:03:43.505Z,97078.97
2023-02-08T18:06:46.026Z,97073.97
2023-02-08T18:09:52.449Z,97079.25
2023-02-08T18:12:58.565Z,97073.66
2023-02-08T18:16:07.322Z,97078.72
2023-02-08T18:19:10.379Z,97073.56
2023-02-08T18:22:12.638Z,97074.66
2023-02-08T18:25:19.419Z,97065.34
2023-02-08T18:28:24.117Z,97075.72
2023-02-08T18:31:27.732Z,97064.31
2023-02-08T18:34:31.419Z,97074.06
2023-02-08T18:37:37.056Z,97065.13
2023-02-08T18:40:42.680Z,97060.63
2023-02-08T18:43:49.702Z,97060.88
2023-02-08T18:46:55.775Z,97053.69
2023-02-08T18:49:58.969Z,97063.22
2023-02-08T18:53:03.602Z,97055.72
2023-02-08T18:56:13.375Z,97062.88
2023-02-08T18:59:16.684Z,97063.16
2023-02-08T19:02:21.540Z,97067.94
2023-02-08T19:05:24.988Z,97061.34
2023-02-08T19:08:28.920Z,97059.97
2023-02-08T19:11:36.351Z,97062.59
2023-02-08T19:14:40.519Z,97061.28
2023-02-08T19:17:43.507Z,97061.59
2023-02-08T19:20:47.982Z,97057.63
2023-02-08T19:23:52.337Z,97050.09
2023-02-08T19:26:57.596Z,97047.50
2023-02-08T19:30:00.233Z,97056.22
2023-02-08T19:33:04.016Z,97055.16
2023-02-08T19:36:08.523Z,97048.81
2023-02-08T19:39:15.646Z,97064.13
2023-02-08T19:42:23.098Z,97049.03
2023-02-08T19:45:29.347Z,97050.75
2023-02-08T19:48:32.355Z,97052.13
2023-02-08T19:51:36.388Z,97047.41
2023-02-08T19:54:39.455Z,97050.03
2023-02-08T19:57:44.123Z,97053.22
2023-02-08T20:00:49.443Z,97055.03
2023-02-08T20:03:54.389Z,97053.16
2023-02-08T20:07:00.133Z,97057.06
2023-02-08T20:10:02.812Z,97051.34
2023-02-08T20:13:08.416Z,97055.78
2023-02-08T20:16:11.093Z,97045.78
2023-02-08T20:19:14.419Z,97048.16
2023-02-08T20:22:17.440Z,97042.31
2023-02-08T20:25:21.502Z,97042.16
2023-02-08T20:28:25.804Z,97047.84
2023-02-08T20:31:31.027Z,97051.78
2023-02-08T20:34:38.121Z,97044.63
2023-02-08T20:37:42.858Z,97046.25
2023-02-08T20:40:46.373Z,97048.38
2023-02-08T20:43:50.749Z,97050.66
2023-02-08T20:46:53.284Z,97046.69
2023-02-08T20:49:56.018Z,97049.53
2023-02-08T20:52:58.938Z,97046.63
2023-02-08T20:56:06.366Z,97047.06
2023-02-08T20:59:12.441Z,97041.78
2023-02-08T21:02:20.397Z,97049.25
2023-02-08T21:05:22.687Z,97048.13
2023-02-08T21:08:27.469Z,97047.53
2023-02-08T21:11:31.521Z,97050.56
2023-02-08T21:14:35.329Z,97036.50
2023-02-08T21:17:41.051Z,97043.97
2023-02-08T21:20:43.227Z,97032.63
2023-02-08T21:23:50.333Z,97027.28
2023-02-08T21:26:53.979Z,97031.03
2023-02-08T21:29:57.696Z,97022.81
2023-02-08T21:32:59.539Z,97021.78
2023-02-08T21:36:05.998Z,97026.09
2023-02-08T21:39:08.471Z,97022.88
2023-02-08T21:42:13.296Z,97028.81
2023-02-08T21:45:21.030Z,97021.88
2023-02-08T21:48:22.876Z,97025.78
2023-02-08T21:51:26.612Z,97030.13
2023-02-08T21:54:33.087Z,97015.88
2023-02-08T21:57:36.578Z,97018.75
2023-02-08T22:00:39.869Z,97019.19
2023-02-08T22:03:41.930Z,97011.63
2023-02-08T22:06:45.929Z,97011.53
2023-02-08T22:09:47.897Z,97011.03
2023-02-08T22:12:52.940Z,97003.53
2023-02-08T22:16:00.698Z,97001.66
2023-02-08T22:19:02.535Z,96994.00
2023-02-08T22:22:04.472Z,96997.78
2023-02-08T22:25:06.997Z,96996.88
2023-02-08T22:28:11.145Z,96988.19
2023-02-08T22:31:16.326Z,96987.72
2023-02-08T22:34:18.744Z,96993.72
2023-02-08T22:37:22.095Z,96988.59
2023-02-08T22:40:32.484Z,96977.38
2023-02-08T22:43:35.957Z,96986.66
2023-02-08T22:46:43.450Z,96990.00
2023-02-08T22:49:46.924Z,96992.97
2023-02-08T22:52:48.798Z,96986.44
2023-02-08T22:55:53.456Z,96983.44
2023-02-08T22:59:02.886Z,96991.66
2023-02-08T23:02:13.779Z,96990.91
2023-02-08T23:05:17.695Z,96988.63
2023-02-08T23:08:21.134Z,96978.88
2023-02-08T23:11:22.897Z,96973.63
2023-02-08T23:14:25.642Z,96987.88
2023-02-08T23:17:29.504Z,96981.63
2023-02-08T23:20:33.574Z,96977.41
2023-02-08T23:23:39.141Z,96985.53
2023-02-08T23:26:41.430Z,96979.97
2023-02-08T23:29:45.572Z,96975.81
2023-02-08T23:32:51.367Z,96976.25
2023-02-08T23:36:01.805Z,96974.16
2023-02-08T23:39:03.893Z,96962.84
2023-02-08T23:42:08.747Z,96978.53
2023-02-08T23:45:17.649Z,96976.69
2023-02-08T23:48:20.875Z,96969.81
2023-02-08T23:51:24.834Z,96966.28
2023-02-08T23:54:30.545Z,96964.84
2023-02-08T23:57:33.790Z,96959.84
